Time,TemperatureF,DewpointF,PressureIn,WindDirection,WindDirectionDegrees,WindSpeedMPH,WindSpeedGustMPH,Humidity,HourlyPrecipIn,Conditions,Clouds,dailyrainin,SoftwareType,DateUTC
2013-08-20 00:00:00,65.2,63.4,30.04,South,190,0.0,1.0,94,0.00,,---,0.00,VWS V14.01,2013-08-20 05:00:00,
2013-08-20 00:01:00,65.2,63.4,30.04,South,190,0.0,0.0,94,0.00,,---,0.00,VWS V14.01,2013-08-20 05:01:00,
2013-08-20 00:06:00,65.1,63.3,30.04,South,190,0.0,0.0,94,0.00,,---,0.00,VWS V14.01,2013-08-20 05:06:00,
2013-08-20 00:11:00,65.1,63.6,30.04,South,190,0.0,1.0,95,0.00,,---,0.00,VWS V14.01,2013-08-20 05:11:00,
2013-08-20 00:16:00,65.0,63.5,30.04,South,190,0.0,1.0,95,0.00,,---,0.00,VWS V14.01,2013-08-20 05:16:00,
2013-08-20 00:21:00,65.0,63.5,30.04,South,190,0.0,2.0,95,0.00,,---,0.00,VWS V14.01,2013-08-20 05:21:00,
2013-08-20 00:26:00,65.0,63.5,30.04,South,190,0.0,2.0,95,0.00,,---,0.00,VWS V14.01,2013-08-20 05:26:00,
2013-08-20 00:30:00,64.9,63.4,30.04,South,190,0.0,4.0,95,0.00,,---,0.00,VWS V14.01,2013-08-20 05:30:00,
2013-08-20 00:31:00,64.9,63.4,30.04,South,190,1.0,3.0,95,0.00,,---,0.00,VWS V14.01,2013-08-20 05:31:00,
2013-08-20 00:36:00,64.8,63.3,30.04,SE,139,0.0,4.0,95,0.00,,---,0.00,VWS V14.01,2013-08-20 05:36:00,
2013-08-20 00:40:00,64.7,63.2,30.04,SE,136,2.0,5.0,95,0.00,,---,0.00,VWS V14.01,2013-08-20 05:40:00,
2013-08-20 00:45:00,64.7,63.2,30.04,SSE,148,0.0,5.0,95,0.00,,---,0.00,VWS V14.01,2013-08-20 05:45:00,
2013-08-20 00:50:00,64.7,63.2,30.04,SSE,148,0.0,5.0,95,0.00,,---,0.00,VWS V14.01,2013-08-20 05:50:00,
2013-08-20 00:55:00,64.7,63.2,30.04,SSE,148,0.0,5.0,95,0.00,,---,0.00,VWS V14.01,2013-08-20 05:55:00,
2013-08-20 01:00:00,64.8,63.3,30.04,SSE,148,0.0,0.0,95,0.00,,---,0.00,VWS V14.01,2013-08-20 06:00:00,
2013-08-20 01:05:00,64.7,63.2,30.04,SSE,148,0.0,1.0,95,0.00,,---,0.00,VWS V14.01,2013-08-20 06:05:00,
2013-08-20 01:10:00,64.7,63.2,30.04,SSE,148,0.0,1.0,95,0.00,,---,0.00,VWS V14.01,2013-08-20 06:10:00,
2013-08-20 01:15:00,64.7,63.2,30.04,SSE,148,0.0,1.0,95,0.00,,---,0.00,VWS V14.01,2013-08-20 06:15:00,
2013-08-20 01:20:00,64.7,63.2,30.03,SSE,148,0.0,1.0,95,0.00,,---,0.00,VWS V14.01,2013-08-20 06:20:00,
2013-08-20 01:25:00,64.6,63.1,30.03,SSE,148,0.0,1.0,95,0.00,,---,0.00,VWS V14.01,2013-08-20 06:25:00,
2013-08-20 01:30:00,64.7,63.5,30.03,SSE,148,0.0,0.0,96,0.00,,---,0.00,VWS V14.01,2013-08-20 06:30:00,
2013-08-20 01:35:00,64.7,63.2,30.04,SSE,148,0.0,1.0,95,0.00,,---,0.00,VWS V14.01,2013-08-20 06:35:00,
2013-08-20 01:40:00,64.7,63.5,30.03,SSE,148,0.0,4.0,96,0.00,,---,0.00,VWS V14.01,2013-08-20 06:40:00,
2013-08-20 01:45:00,64.6,63.1,30.03,SSE,148,0.0,4.0,95,0.00,,---,0.00,VWS V14.01,2013-08-20 06:45:00,
2013-08-20 01:50:00,64.5,63.0,30.03,SSE,148,0.0,4.0,95,0.00,,---,0.00,VWS V14.01,2013-08-20 06:50:00,
2013-08-20 01:55:00,64.5,63.3,30.03,SSE,148,0.0,4.0,96,0.00,,---,0.00,VWS V14.01,2013-08-20 06:55:00,
2013-08-20 02:00:00,64.4,63.2,30.03,SSE,148,0.0,0.0,96,0.00,,---,0.00,VWS V14.01,2013-08-20 07:00:00,
2013-08-20 02:05:00,64.3,63.1,30.03,SSE,148,0.0,4.0,96,0.00,,---,0.00,VWS V14.01,2013-08-20 07:05:00,
2013-08-20 02:10:00,64.4,63.2,30.03,SSE,148,0.0,4.0,96,0.00,,---,0.00,VWS V14.01,2013-08-20 07:10:00,
2013-08-20 02:15:00,64.3,63.1,30.03,SSE,148,0.0,4.0,96,0.00,,---,0.00,VWS V14.01,2013-08-20 07:15:00,
2013-08-20 02:20:00,64.2,63.0,30.03,SSE,148,2.0,5.0,96,0.00,,---,0.00,VWS V14.01,2013-08-20 07:20:00,
2013-08-20 02:25:00,64.1,62.6,30.03,SSE,148,1.0,5.0,95,0.00,,---,0.00,VWS V14.01,2013-08-20 07:25:00,
2013-08-20 02:30:00,64.0,62.8,30.03,SSE,148,0.0,0.0,96,0.00,,---,0.00,VWS V14.01,2013-08-20 07:30:00,
2013-08-20 02:35:00,64.0,62.8,30.03,SSE,148,1.0,5.0,96,0.00,,---,0.00,VWS V14.01,2013-08-20 07:35:00,
2013-08-20 02:40:00,64.0,62.8,30.03,South,178,0.0,5.0,96,0.00,,---,0.00,VWS V14.01,2013-08-20 07:40:00,
2013-08-20 02:45:00,64.0,62.8,30.03,SSE,148,0.0,5.0,96,0.00,,---,0.00,VWS V14.01,2013-08-20 07:45:00,
2013-08-20 02:50:00,63.9,62.7,30.03,SSE,148,0.0,5.0,96,0.00,,---,0.00,VWS V14.01,2013-08-20 07:50:00,
2013-08-20 02:55:00,63.8,62.6,30.03,SSE,148,0.0,5.0,96,0.00,,---,0.00,VWS V14.01,2013-08-20 07:55:00,
2013-08-20 03:00:00,63.8,62.6,30.03,SSE,148,1.0,2.0,96,0.00,,---,0.00,VWS V14.01,2013-08-20 08:00:00,
2013-08-20 03:05:00,63.8,62.6,30.03,SSE,148,0.0,2.0,96,0.00,,---,0.00,VWS V14.01,2013-08-20 08:05:00,
2013-08-20 03:10:00,63.7,62.5,30.03,SSE,162,3.0,6.0,96,0.00,,---,0.00,VWS V14.01,2013-08-20 08:10:00,
2013-08-20 03:15:00,63.8,62.6,30.03,SSE,163,1.0,6.0,96,0.00,,---,0.00,VWS V14.01,2013-08-20 08:15:00,
2013-08-20 03:20:00,63.7,62.5,30.03,SSE,151,0.0,6.0,96,0.00,,---,0.00,VWS V14.01,2013-08-20 08:20:00,
2013-08-20 03:25:00,63.8,62.6,30.03,ESE,121,1.0,6.0,96,0.00,,---,0.00,VWS V14.01,2013-08-20 08:25:00,
2013-08-20 03:30:00,63.9,62.7,30.03,SSE,148,0.0,0.0,96,0.00,,---,0.00,VWS V14.01,2013-08-20 08:30:00,
2013-08-20 03:35:00,63.8,62.6,30.03,SSE,148,0.0,1.0,96,0.00,,---,0.00,VWS V14.01,2013-08-20 08:35:00,
2013-08-20 03:40:00,63.8,62.6,30.03,SSE,148,0.0,4.0,96,0.00,,---,0.00,VWS V14.01,2013-08-20 08:40:00,
2013-08-20 03:45:00,63.6,62.4,30.03,SSE,148,0.0,4.0,96,0.00,,---,0.00,VWS V14.01,2013-08-20 08:45:00,
2013-08-20 03:50:00,63.6,62.4,30.03,SE,126,0.0,5.0,96,0.00,,---,0.00,VWS V14.01,2013-08-20 08:50:00,
2013-08-20 03:55:00,63.5,62.3,30.03,SE,135,0.0,5.0,96,0.00,,---,0.00,VWS V14.01,2013-08-20 08:55:00,
2013-08-20 04:00:00,63.4,62.2,30.03,SE,135,0.0,2.0,96,0.00,,---,0.00,VWS V14.01,2013-08-20 09:00:00,
2013-08-20 04:05:00,63.4,62.2,30.03,SE,145,0.0,5.0,96,0.00,,---,0.00,VWS V14.01,2013-08-20 09:05:00,
2013-08-20 04:10:00,63.3,62.1,30.03,SE,145,2.0,5.0,96,0.00,,---,0.00,VWS V14.01,2013-08-20 09:10:00,
2013-08-20 04:15:00,63.3,62.1,30.03,SE,143,2.0,7.0,96,0.00,,---,0.00,VWS V14.01,2013-08-20 09:15:00,
2013-08-20 04:20:00,63.4,62.2,30.03,SE,143,5.0,7.0,96,0.00,,---,0.00,VWS V14.01,2013-08-20 09:20:00,
2013-08-20 04:25:00,63.3,62.1,30.03,SE,143,0.0,7.0,96,0.00,,---,0.00,VWS V14.01,2013-08-20 09:25:00,
2013-08-20 04:30:00,63.2,62.0,30.03,SE,143,0.0,4.0,96,0.00,,---,0.00,VWS V14.01,2013-08-20 09:30:00,
2013-08-20 04:35:00,63.2,62.0,30.04,SE,143,0.0,4.0,96,0.00,,---,0.00,VWS V14.01,2013-08-20 09:35:00,
2013-08-20 04:40:00,63.1,61.9,30.03,SE,143,2.0,5.0,96,0.00,,---,0.00,VWS V14.01,2013-08-20 09:40:00,
2013-08-20 04:45:00,63.1,61.9,30.04,SE,143,0.0,5.0,96,0.00,,---,0.00,VWS V14.01,2013-08-20 09:45:00,
2013-08-20 04:50:00,63.0,61.8,30.03,SE,143,4.0,5.0,96,0.00,,---,0.00,VWS V14.01,2013-08-20 09:50:00,
2013-08-20 04:55:00,63.0,61.8,30.04,SE,143,0.0,5.0,96,0.00,,---,0.00,VWS V14.01,2013-08-20 09:55:00,
2013-08-20 05:00:00,63.0,61.8,30.04,SE,143,0.0,0.0,96,0.00,,---,0.00,VWS V14.01,2013-08-20 10:00:00,
2013-08-20 05:05:00,63.0,61.8,30.04,SE,143,0.0,3.0,96,0.00,,---,0.00,VWS V14.01,2013-08-20 10:05:00,
2013-08-20 05:10:00,62.9,61.8,30.04,SE,143,0.0,4.0,96,0.00,,---,0.00,VWS V14.01,2013-08-20 10:10:00,
2013-08-20 05:15:00,62.9,61.8,30.04,SE,143,0.0,4.0,96,0.00,,---,0.00,VWS V14.01,2013-08-20 10:15:00,
2013-08-20 05:20:00,62.9,61.8,30.04,SE,143,0.0,4.0,96,0.00,,---,0.00,VWS V14.01,2013-08-20 10:20:00,
2013-08-20 05:25:00,62.9,61.8,30.04,SE,143,1.0,4.0,96,0.00,,---,0.00,VWS V14.01,2013-08-20 10:25:00,
2013-08-20 05:30:00,62.9,62.0,30.05,SE,143,0.0,0.0,97,0.00,,---,0.00,VWS V14.01,2013-08-20 10:30:00,
2013-08-20 05:35:00,62.8,61.9,30.05,SE,143,0.0,1.0,97,0.00,,---,0.00,VWS V14.01,2013-08-20 10:35:00,
2013-08-20 05:40:00,62.8,61.9,30.05,SE,143,0.0,2.0,97,0.00,,---,0.00,VWS V14.01,2013-08-20 10:40:00,
2013-08-20 05:45:00,62.9,62.0,30.05,SE,143,0.0,2.0,97,0.00,,---,0.00,VWS V14.01,2013-08-20 10:45:00,
2013-08-20 05:50:00,62.9,62.0,30.05,SE,143,0.0,2.0,97,0.00,,---,0.00,VWS V14.01,2013-08-20 10:50:00,
2013-08-20 05:55:00,62.9,62.0,30.05,SE,143,0.0,2.0,97,0.00,,---,0.00,VWS V14.01,2013-08-20 10:55:00,
2013-08-20 06:00:00,63.1,62.2,30.05,SE,143,0.0,0.0,97,0.00,,---,0.00,VWS V14.01,2013-08-20 11:00:00,
2013-08-20 06:05:00,63.0,62.1,30.05,SE,143,0.0,1.0,97,0.00,,---,0.00,VWS V14.01,2013-08-20 11:05:00,
2013-08-20 06:10:00,62.9,62.0,30.05,SE,143,0.0,1.0,97,0.00,,---,0.00,VWS V14.01,2013-08-20 11:10:00,
2013-08-20 06:15:00,62.9,62.0,30.06,SE,143,0.0,1.0,97,0.00,,---,0.00,VWS V14.01,2013-08-20 11:15:00,
2013-08-20 06:20:00,62.9,62.0,30.06,SE,143,0.0,2.0,97,0.00,,---,0.00,VWS V14.01,2013-08-20 11:20:00,
2013-08-20 06:25:00,62.9,62.0,30.06,SE,143,0.0,3.0,97,0.00,,---,0.00,VWS V14.01,2013-08-20 11:25:00,
2013-08-20 06:30:00,63.0,62.1,30.06,SE,143,0.0,2.0,97,0.00,,---,0.00,VWS V14.01,2013-08-20 11:30:00,
2013-08-20 06:35:00,63.1,62.2,30.06,SE,143,0.0,2.0,97,0.00,,---,0.00,VWS V14.01,2013-08-20 11:35:00,
2013-08-20 06:40:00,63.1,62.2,30.06,SE,143,0.0,5.0,97,0.00,,---,0.00,VWS V14.01,2013-08-20 11:40:00,
2013-08-20 06:45:00,63.2,62.3,30.06,SE,144,0.0,5.0,97,0.00,,---,0.00,VWS V14.01,2013-08-20 11:45:00,
2013-08-20 06:50:00,63.6,62.7,30.06,SSE,150,1.0,5.0,97,0.00,,---,0.00,VWS V14.01,2013-08-20 11:50:00,
2013-08-20 06:55:00,63.9,63.0,30.06,SE,136,4.0,5.0,97,0.00,,---,0.00,VWS V14.01,2013-08-20 11:55:00,
2013-08-20 07:00:00,63.9,63.0,30.06,South,180,2.0,5.0,97,0.00,,---,0.00,VWS V14.01,2013-08-20 12:00:00,
2013-08-20 07:05:00,63.8,62.9,30.07,SSE,152,3.0,6.0,97,0.00,,---,0.00,VWS V14.01,2013-08-20 12:05:00,
2013-08-20 07:10:00,63.9,63.0,30.07,SE,135,4.0,6.0,97,0.00,,---,0.00,VWS V14.01,2013-08-20 12:10:00,
2013-08-20 07:15:00,64.2,63.3,30.07,SSE,156,5.0,6.0,97,0.00,,---,0.00,VWS V14.01,2013-08-20 12:15:00,
2013-08-20 07:20:00,64.4,63.5,30.07,SSE,150,0.0,6.0,97,0.00,,---,0.00,VWS V14.01,2013-08-20 12:20:00,
2013-08-20 07:25:00,64.6,63.4,30.07,SSE,147,0.0,6.0,96,0.00,,---,0.00,VWS V14.01,2013-08-20 12:25:00,
2013-08-20 07:30:00,64.8,63.6,30.07,SSE,153,0.0,0.0,96,0.00,,---,0.00,VWS V14.01,2013-08-20 12:30:00,
2013-08-20 07:35:00,65.2,64.0,30.07,SE,136,4.0,5.0,96,0.00,,---,0.00,VWS V14.01,2013-08-20 12:35:00,
2013-08-20 07:40:00,65.5,64.3,30.08,SE,136,0.0,5.0,96,0.00,,---,0.00,VWS V14.01,2013-08-20 12:40:00,
2013-08-20 07:45:00,65.7,64.2,30.08,SE,146,4.0,6.0,95,0.00,,---,0.00,VWS V14.01,2013-08-20 12:45:00,
2013-08-20 07:50:00,66.2,64.7,30.08,SSE,163,0.0,6.0,95,0.00,,---,0.00,VWS V14.01,2013-08-20 12:50:00,
2013-08-20 07:55:00,66.7,64.9,30.08,SSE,167,0.0,6.0,94,0.00,,---,0.00,VWS V14.01,2013-08-20 12:55:00,
2013-08-20 08:00:00,67.2,65.1,30.08,SSE,148,0.0,0.0,93,0.00,,---,0.00,VWS V14.01,2013-08-20 13:00:00,
2013-08-20 08:05:00,67.7,65.6,30.08,SSE,166,1.0,6.0,93,0.00,,---,0.00,VWS V14.01,2013-08-20 13:05:00,
2013-08-20 08:10:00,68.3,65.9,30.08,ESE,120,5.0,6.0,92,0.00,,---,0.00,VWS V14.01,2013-08-20 13:10:00,
2013-08-20 08:15:00,68.8,65.8,30.08,SE,144,1.0,6.0,90,0.00,,---,0.00,VWS V14.01,2013-08-20 13:15:00,
2013-08-20 08:20:00,69.3,65.9,30.08,SSE,148,0.0,6.0,89,0.00,,---,0.00,VWS V14.01,2013-08-20 13:20:00,
2013-08-20 08:25:00,69.7,66.3,30.08,SSE,152,4.0,7.0,89,0.00,,---,0.00,VWS V14.01,2013-08-20 13:25:00,
2013-08-20 08:30:00,70.1,66.4,30.08,SE,146,4.0,4.0,88,0.00,,---,0.00,VWS V14.01,2013-08-20 13:30:00,
2013-08-20 08:35:00,70.5,66.4,30.08,SSE,161,0.0,6.0,87,0.00,,---,0.00,VWS V14.01,2013-08-20 13:35:00,
2013-08-20 08:40:00,70.7,66.7,30.08,SSE,152,1.0,6.0,87,0.00,,---,0.00,VWS V14.01,2013-08-20 13:40:00,
2013-08-20 08:45:00,70.9,66.8,30.08,SSW,202,2.0,8.0,87,0.00,,---,0.00,VWS V14.01,2013-08-20 13:45:00,
2013-08-20 08:50:00,71.2,67.1,30.08,SE,138,0.0,8.0,87,0.00,,---,0.00,VWS V14.01,2013-08-20 13:50:00,
2013-08-20 08:55:00,71.6,67.5,30.08,SE,144,0.0,8.0,87,0.00,,---,0.00,VWS V14.01,2013-08-20 13:55:00,
2013-08-20 09:00:00,72.0,67.9,30.08,South,175,0.0,2.0,87,0.00,,---,0.00,VWS V14.01,2013-08-20 14:00:00,
2013-08-20 09:05:00,72.4,68.0,30.08,SE,124,2.0,6.0,86,0.00,,---,0.00,VWS V14.01,2013-08-20 14:05:00,
2013-08-20 09:09:00,72.9,67.8,30.08,SSE,157,2.0,6.0,84,0.00,,---,0.00,VWS V14.01,2013-08-20 14:09:00,
2013-08-20 09:14:00,73.3,68.2,30.08,SE,144,0.0,6.0,84,0.00,,---,0.00,VWS V14.01,2013-08-20 14:14:00,
2013-08-20 09:19:00,73.8,69.0,30.09,SE,139,0.0,6.0,85,0.00,,---,0.00,VWS V14.01,2013-08-20 14:19:00,
2013-08-20 09:24:00,74.3,68.8,30.09,SW,216,2.0,6.0,83,0.00,,---,0.00,VWS V14.01,2013-08-20 14:24:00,
2013-08-20 09:29:00,75.0,69.1,30.09,South,186,2.0,4.0,82,0.00,,---,0.00,VWS V14.01,2013-08-20 14:29:00,
2013-08-20 09:30:00,74.9,69.4,30.09,South,182,0.0,7.0,83,0.00,,---,0.00,VWS V14.01,2013-08-20 14:30:00,
2013-08-20 09:34:00,75.8,69.2,30.08,SE,141,6.0,7.0,80,0.00,,---,0.00,VWS V14.01,2013-08-20 14:34:00,
2013-08-20 09:39:00,76.2,69.6,30.08,SE,144,1.0,8.0,80,0.00,,---,0.00,VWS V14.01,2013-08-20 14:39:00,
2013-08-20 09:44:00,76.5,69.9,30.09,South,181,0.0,8.0,80,0.00,,---,0.00,VWS V14.01,2013-08-20 14:44:00,
2013-08-20 09:49:00,77.0,70.4,30.09,SSE,155,2.0,8.0,80,0.00,,---,0.00,VWS V14.01,2013-08-20 14:49:00,
2013-08-20 09:54:00,77.6,70.2,30.09,SSE,162,3.0,8.0,78,0.00,,---,0.00,VWS V14.01,2013-08-20 14:54:00,
2013-08-20 09:59:00,78.3,70.1,30.09,SSW,199,1.0,4.0,76,0.00,,---,0.00,VWS V14.01,2013-08-20 14:59:00,
2013-08-20 10:00:00,78.3,70.5,30.09,SSW,199,3.0,8.0,77,0.00,,---,0.00,VWS V14.01,2013-08-20 15:00:00,
2013-08-20 10:04:00,78.6,70.0,30.09,SE,136,0.0,7.0,75,0.00,,---,0.00,VWS V14.01,2013-08-20 15:04:00,
2013-08-20 10:09:00,78.9,70.3,30.09,SSW,209,0.0,8.0,75,0.00,,---,0.00,VWS V14.01,2013-08-20 15:09:00,
2013-08-20 10:14:00,79.3,71.1,30.09,SSE,149,0.0,8.0,76,0.00,,---,0.00,VWS V14.01,2013-08-20 15:14:00,
2013-08-20 10:19:00,79.6,70.6,30.09,SSW,192,0.0,8.0,74,0.00,,---,0.00,VWS V14.01,2013-08-20 15:19:00,
2013-08-20 10:24:00,80.0,71.4,30.09,SE,131,0.0,8.0,75,0.00,,---,0.00,VWS V14.01,2013-08-20 15:24:00,
2013-08-20 10:29:00,80.5,71.5,30.09,NNE,27,0.0,0.0,74,0.00,,---,0.00,VWS V14.01,2013-08-20 15:29:00,
2013-08-20 10:30:00,80.4,71.0,30.09,NNE,27,0.0,8.0,73,0.00,,---,0.00,VWS V14.01,2013-08-20 15:30:00,
2013-08-20 10:34:00,80.7,71.2,30.08,South,172,2.0,8.0,73,0.00,,---,0.00,VWS V14.01,2013-08-20 15:34:00,
2013-08-20 10:39:00,81.1,71.6,30.08,SSE,166,0.0,8.0,73,0.00,,---,0.00,VWS V14.01,2013-08-20 15:39:00,
2013-08-20 10:44:00,81.1,70.8,30.08,SE,127,5.0,9.0,71,0.00,,---,0.00,VWS V14.01,2013-08-20 15:44:00,
2013-08-20 10:49:00,81.2,70.5,30.08,SE,124,0.0,9.0,70,0.00,,---,0.00,VWS V14.01,2013-08-20 15:49:00,
2013-08-20 10:54:00,81.4,71.1,30.08,SSE,156,2.0,9.0,71,0.00,,---,0.00,VWS V14.01,2013-08-20 15:54:00,
2013-08-20 10:59:00,81.9,70.7,30.08,ESE,117,0.0,0.0,69,0.00,,---,0.00,VWS V14.01,2013-08-20 15:59:00,
2013-08-20 11:00:00,81.8,70.6,30.08,ESE,117,0.0,11.0,69,0.00,,---,0.00,VWS V14.01,2013-08-20 16:00:00,
2013-08-20 11:04:00,82.0,70.8,30.08,South,175,0.0,8.0,69,0.00,,---,0.00,VWS V14.01,2013-08-20 16:04:00,
2013-08-20 11:09:00,82.3,71.1,30.08,SSE,157,0.0,8.0,69,0.00,,---,0.00,VWS V14.01,2013-08-20 16:09:00,
2013-08-20 11:14:00,82.5,70.9,30.08,SE,134,1.0,8.0,68,0.00,,---,0.00,VWS V14.01,2013-08-20 16:14:00,
2013-08-20 11:19:00,82.7,71.1,30.08,SE,136,4.0,8.0,68,0.00,,---,0.00,VWS V14.01,2013-08-20 16:19:00,
2013-08-20 11:24:00,82.6,70.5,30.08,SE,130,0.0,8.0,67,0.00,,---,0.00,VWS V14.01,2013-08-20 16:24:00,
2013-08-20 11:29:00,82.7,70.6,30.08,SE,145,2.0,3.0,67,0.00,,---,0.00,VWS V14.01,2013-08-20 16:29:00,
2013-08-20 11:30:00,82.7,70.6,30.08,SE,145,3.0,8.0,67,0.00,,---,0.00,VWS V14.01,2013-08-20 16:30:00,
2013-08-20 11:34:00,82.6,70.5,30.08,South,184,2.0,8.0,67,0.00,,---,0.00,VWS V14.01,2013-08-20 16:34:00,
2013-08-20 11:39:00,82.9,71.7,30.08,SE,136,0.0,8.0,69,0.00,,---,0.00,VWS V14.01,2013-08-20 16:39:00,
2013-08-20 11:44:00,83.4,72.2,30.07,SE,145,0.0,8.0,69,0.00,,---,0.00,VWS V14.01,2013-08-20 16:44:00,
2013-08-20 11:49:00,83.6,71.1,30.07,ESE,115,1.0,8.0,66,0.00,,---,0.00,VWS V14.01,2013-08-20 16:49:00,
2013-08-20 11:54:00,83.8,70.3,30.07,SE,134,0.0,8.0,64,0.00,,---,0.00,VWS V14.01,2013-08-20 16:54:00,
2013-08-20 11:59:00,84.0,71.0,30.07,South,188,7.0,7.0,65,0.00,,---,0.00,VWS V14.01,2013-08-20 16:59:00,
2013-08-20 12:00:00,84.0,71.0,30.07,South,180,0.0,8.0,65,0.00,,---,0.00,VWS V14.01,2013-08-20 17:00:00,
2013-08-20 12:04:00,84.1,71.1,30.07,SSE,147,1.0,7.0,65,0.00,,---,0.00,VWS V14.01,2013-08-20 17:04:00,
2013-08-20 12:09:00,83.4,69.9,30.07,SSW,204,0.0,7.0,64,0.00,,---,0.00,VWS V14.01,2013-08-20 17:09:00,
2013-08-20 12:14:00,82.9,69.9,30.07,SE,142,0.0,7.0,65,0.00,,---,0.00,VWS V14.01,2013-08-20 17:14:00,
2013-08-20 12:19:00,82.9,70.4,30.07,South,173,0.0,7.0,66,0.00,,---,0.00,VWS V14.01,2013-08-20 17:19:00,
2013-08-20 12:24:00,82.6,69.2,30.07,SSE,154,2.0,7.0,64,0.00,,---,0.00,VWS V14.01,2013-08-20 17:24:00,
2013-08-20 12:29:00,82.2,70.6,30.07,South,176,0.0,1.0,68,0.00,,---,0.00,VWS V14.01,2013-08-20 17:29:00,
2013-08-20 12:30:00,82.2,70.6,30.07,South,176,1.0,7.0,68,0.00,,---,0.00,VWS V14.01,2013-08-20 17:30:00,
2013-08-20 12:34:00,81.8,70.6,30.06,South,179,0.0,4.0,69,0.00,,---,0.00,VWS V14.01,2013-08-20 17:34:00,
2013-08-20 12:39:00,81.7,71.4,30.06,ESE,121,3.0,5.0,71,0.00,,---,0.00,VWS V14.01,2013-08-20 17:39:00,
2013-08-20 12:44:00,81.9,68.5,30.06,South,184,4.0,7.0,64,0.00,,---,0.00,VWS V14.01,2013-08-20 17:44:00,
2013-08-20 12:49:00,82.6,69.2,30.06,SE,138,0.0,7.0,64,0.00,,---,0.00,VWS V14.01,2013-08-20 17:49:00,
2013-08-20 12:54:00,83.2,72.0,30.06,South,175,0.0,7.0,69,0.00,,---,0.00,VWS V14.01,2013-08-20 17:54:00,
2013-08-20 12:59:00,83.6,69.2,30.06,SSE,159,1.0,1.0,62,0.00,,---,0.00,VWS V14.01,2013-08-20 17:59:00,
2013-08-20 13:00:00,83.6,69.2,30.06,SSE,157,0.0,8.0,62,0.00,,---,0.00,VWS V14.01,2013-08-20 18:00:00,
2013-08-20 13:04:00,83.7,69.3,30.05,SSW,200,0.0,6.0,62,0.00,,---,0.00,VWS V14.01,2013-08-20 18:04:00,
2013-08-20 13:09:00,84.1,72.4,30.05,South,183,0.0,6.0,68,0.00,,---,0.00,VWS V14.01,2013-08-20 18:09:00,
2013-08-20 13:14:00,84.5,70.5,30.05,SSE,157,3.0,8.0,63,0.00,,---,0.00,VWS V14.01,2013-08-20 18:14:00,
2013-08-20 13:19:00,84.6,69.7,30.05,SSW,204,0.0,9.0,61,0.00,,---,0.00,VWS V14.01,2013-08-20 18:19:00,
2013-08-20 13:24:00,84.2,68.8,30.05,SE,132,0.0,9.0,60,0.00,,---,0.00,VWS V14.01,2013-08-20 18:24:00,
2013-08-20 13:29:00,83.9,69.0,30.05,South,169,0.0,0.0,61,0.00,,---,0.00,VWS V14.01,2013-08-20 18:29:00,
2013-08-20 13:30:00,83.9,69.0,30.05,South,169,0.0,9.0,61,0.00,,---,0.00,VWS V14.01,2013-08-20 18:30:00,
2013-08-20 13:34:00,83.7,70.2,30.05,SW,234,1.0,5.0,64,0.00,,---,0.00,VWS V14.01,2013-08-20 18:34:00,
2013-08-20 13:39:00,84.0,69.6,30.05,ESE,115,7.0,8.0,62,0.00,,---,0.00,VWS V14.01,2013-08-20 18:39:00,
2013-08-20 13:44:00,84.1,68.7,30.05,South,188,0.0,8.0,60,0.00,,---,0.00,VWS V14.01,2013-08-20 18:44:00,
2013-08-20 13:49:00,84.7,71.6,30.05,South,188,0.0,8.0,65,0.00,,---,0.00,VWS V14.01,2013-08-20 18:49:00,
2013-08-20 13:54:00,85.1,68.7,30.05,SE,142,0.0,9.0,58,0.00,,---,0.00,VWS V14.01,2013-08-20 18:54:00,
2013-08-20 13:59:00,85.4,69.9,30.04,SE,138,6.0,9.0,60,0.00,,---,0.00,VWS V14.01,2013-08-20 18:59:00,
2013-08-20 14:00:00,85.4,69.9,30.04,SE,138,6.0,9.0,60,0.00,,---,0.00,VWS V14.01,2013-08-20 19:00:00,
2013-08-20 14:04:00,85.2,68.8,30.04,SSE,164,0.0,12.0,58,0.00,,---,0.00,VWS V14.01,2013-08-20 19:04:00,
2013-08-20 14:09:00,85.4,69.9,30.04,West,262,0.0,12.0,60,0.00,,---,0.00,VWS V14.01,2013-08-20 19:09:00,
2013-08-20 14:14:00,85.4,69.4,30.04,SSE,154,0.0,12.0,59,0.00,,---,0.00,VWS V14.01,2013-08-20 19:14:00,
2013-08-20 14:19:00,85.4,69.0,30.04,SSE,151,0.0,12.0,58,0.00,,---,0.00,VWS V14.01,2013-08-20 19:19:00,
2013-08-20 14:24:00,85.4,68.4,30.04,South,169,2.0,12.0,57,0.00,,---,0.00,VWS V14.01,2013-08-20 19:24:00,
2013-08-20 14:29:00,85.7,68.7,30.03,SSW,205,2.0,12.0,57,0.00,,---,0.00,VWS V14.01,2013-08-20 19:29:00,
2013-08-20 14:30:00,85.7,68.7,30.03,SSW,205,2.0,12.0,57,0.00,,---,0.00,VWS V14.01,2013-08-20 19:30:00,
2013-08-20 14:34:00,85.7,68.2,30.03,SSE,156,3.0,7.0,56,0.00,,---,0.00,VWS V14.01,2013-08-20 19:34:00,
2013-08-20 14:39:00,85.6,68.1,30.03,SE,133,0.0,9.0,56,0.00,,---,0.00,VWS V14.01,2013-08-20 19:39:00,
2013-08-20 14:44:00,84.9,67.5,30.03,South,180,0.0,9.0,56,0.00,,---,0.00,VWS V14.01,2013-08-20 19:44:00,
2013-08-20 14:49:00,84.5,68.1,30.03,East,92,2.0,9.0,58,0.00,,---,0.00,VWS V14.01,2013-08-20 19:49:00,
2013-08-20 14:54:00,84.8,68.4,30.03,SSE,165,4.0,9.0,58,0.00,,---,0.00,VWS V14.01,2013-08-20 19:54:00,
2013-08-20 14:59:00,85.2,68.8,30.03,SSW,200,2.0,9.0,58,0.00,,---,0.00,VWS V14.01,2013-08-20 19:59:00,
2013-08-20 15:00:00,85.3,67.8,30.03,SSW,193,2.0,9.0,56,0.00,,---,0.00,VWS V14.01,2013-08-20 20:00:00,
2013-08-20 15:04:00,85.4,67.9,30.03,South,189,5.0,10.0,56,0.00,,---,0.00,VWS V14.01,2013-08-20 20:04:00,
2013-08-20 15:09:00,85.2,69.3,30.03,SSE,147,9.0,10.0,59,0.00,,---,0.00,VWS V14.01,2013-08-20 20:09:00,
2013-08-20 15:14:00,85.2,69.3,30.03,SSE,159,0.0,10.0,59,0.00,,---,0.00,VWS V14.01,2013-08-20 20:14:00,
2013-08-20 15:19:00,85.5,68.5,30.03,SE,146,0.0,10.0,57,0.00,,---,0.00,VWS V14.01,2013-08-20 20:19:00,
2013-08-20 15:24:00,85.5,69.1,30.03,SSE,147,1.0,10.0,58,0.00,,---,0.00,VWS V14.01,2013-08-20 20:24:00,
2013-08-20 15:29:00,85.4,67.9,30.02,South,169,1.0,10.0,56,0.00,,---,0.00,VWS V14.01,2013-08-20 20:29:00,
2013-08-20 15:30:00,85.4,67.9,30.02,SSE,168,2.0,10.0,56,0.00,,---,0.00,VWS V14.01,2013-08-20 20:30:00,
2013-08-20 15:34:00,85.2,68.8,30.02,SE,140,0.0,8.0,58,0.00,,---,0.00,VWS V14.01,2013-08-20 20:34:00,
2013-08-20 15:39:00,85.0,68.6,30.02,South,175,4.0,8.0,58,0.00,,---,0.00,VWS V14.01,2013-08-20 20:39:00,
2013-08-20 15:44:00,84.9,68.0,30.02,SSE,150,4.0,9.0,57,0.00,,---,0.00,VWS V14.01,2013-08-20 20:44:00,
2013-08-20 15:49:00,84.8,67.4,30.02,SSE,167,1.0,9.0,56,0.00,,---,0.00,VWS V14.01,2013-08-20 20:49:00,
2013-08-20 15:54:00,84.5,68.1,30.02,SE,131,0.0,9.0,58,0.00,,---,0.00,VWS V14.01,2013-08-20 20:54:00,
2013-08-20 15:59:00,84.6,68.2,30.02,East,98,1.0,9.0,58,0.00,,---,0.00,VWS V14.01,2013-08-20 20:59:00,
2013-08-20 16:00:00,84.6,68.2,30.02,South,186,1.0,9.0,58,0.00,,---,0.00,VWS V14.01,2013-08-20 21:00:00,
2013-08-20 16:04:00,84.4,67.5,30.02,South,176,4.0,11.0,57,0.00,,---,0.00,VWS V14.01,2013-08-20 21:04:00,
2013-08-20 16:09:00,84.2,67.8,30.02,SSW,202,7.0,11.0,58,0.00,,---,0.00,VWS V14.01,2013-08-20 21:09:00,
2013-08-20 16:14:00,84.3,68.9,30.02,South,181,0.0,11.0,60,0.00,,---,0.00,VWS V14.01,2013-08-20 21:14:00,
2013-08-20 16:19:00,84.3,67.9,30.02,SSW,194,2.0,11.0,58,0.00,,---,0.00,VWS V14.01,2013-08-20 21:19:00,
2013-08-20 16:24:00,84.3,67.9,30.02,South,174,0.0,11.0,58,0.00,,---,0.00,VWS V14.01,2013-08-20 21:24:00,
2013-08-20 16:29:00,84.2,67.8,30.02,SSE,157,6.0,11.0,58,0.00,,---,0.00,VWS V14.01,2013-08-20 21:29:00,
2013-08-20 16:30:00,84.2,67.8,30.02,SSE,152,2.0,11.0,58,0.00,,---,0.00,VWS V14.01,2013-08-20 21:30:00,
2013-08-20 16:34:00,84.0,68.1,30.01,SSE,148,2.0,10.0,59,0.00,,---,0.00,VWS V14.01,2013-08-20 21:34:00,
2013-08-20 16:39:00,83.9,67.6,30.01,SSE,162,1.0,10.0,58,0.00,,---,0.00,VWS V14.01,2013-08-20 21:39:00,
2013-08-20 16:44:00,84.0,67.7,30.01,SSE,159,2.0,10.0,58,0.00,,---,0.00,VWS V14.01,2013-08-20 21:44:00,
2013-08-20 16:49:00,84.1,68.2,30.01,SSE,158,0.0,10.0,59,0.00,,---,0.00,VWS V14.01,2013-08-20 21:49:00,
2013-08-20 16:54:00,84.2,68.3,30.01,ESE,119,0.0,10.0,59,0.00,,---,0.00,VWS V14.01,2013-08-20 21:54:00,
2013-08-20 16:59:00,84.3,67.9,30.01,SSW,195,1.0,10.0,58,0.00,,---,0.00,VWS V14.01,2013-08-20 21:59:00,
2013-08-20 17:00:00,84.3,67.9,30.01,SSW,195,1.0,10.0,58,0.00,,---,0.00,VWS V14.01,2013-08-20 22:00:00,
2013-08-20 17:04:00,84.3,67.9,30.01,SSE,165,0.0,7.0,58,0.00,,---,0.00,VWS V14.01,2013-08-20 22:04:00,
2013-08-20 17:09:00,84.4,68.5,30.01,ESE,123,0.0,7.0,59,0.00,,---,0.00,VWS V14.01,2013-08-20 22:09:00,
2013-08-20 17:14:00,84.5,68.1,30.01,SE,146,4.0,7.0,58,0.00,,---,0.00,VWS V14.01,2013-08-20 22:14:00,
2013-08-20 17:19:00,84.4,68.5,30.01,SE,136,0.0,7.0,59,0.00,,---,0.00,VWS V14.01,2013-08-20 22:19:00,
2013-08-20 17:24:00,84.5,68.1,30.01,South,186,0.0,8.0,58,0.00,,---,0.00,VWS V14.01,2013-08-20 22:24:00,
2013-08-20 17:29:00,84.3,68.4,30.01,SE,129,4.0,8.0,59,0.00,,---,0.00,VWS V14.01,2013-08-20 22:29:00,
2013-08-20 17:30:00,84.3,68.4,30.01,SE,131,1.0,8.0,59,0.00,,---,0.00,VWS V14.01,2013-08-20 22:30:00,
2013-08-20 17:34:00,84.2,68.3,30.01,SE,132,1.0,1.0,59,0.00,,---,0.00,VWS V14.01,2013-08-20 22:34:00,
2013-08-20 17:39:00,84.1,68.7,30.01,South,171,2.0,8.0,60,0.00,,---,0.00,VWS V14.01,2013-08-20 22:39:00,
2013-08-20 17:44:00,83.8,68.0,30.01,South,173,0.0,8.0,59,0.00,,---,0.00,VWS V14.01,2013-08-20 22:44:00,
2013-08-20 17:49:00,83.5,69.6,30.00,South,175,0.0,8.0,63,0.00,,---,0.00,VWS V14.01,2013-08-20 22:49:00,
2013-08-20 17:54:00,83.1,70.1,30.01,South,177,0.0,8.0,65,0.00,,---,0.00,VWS V14.01,2013-08-20 22:54:00,
2013-08-20 17:59:00,82.9,70.4,30.00,South,178,0.0,8.0,66,0.00,,---,0.00,VWS V14.01,2013-08-20 22:59:00,
2013-08-20 18:00:00,82.9,70.4,30.00,South,178,0.0,8.0,66,0.00,,---,0.00,VWS V14.01,2013-08-20 23:00:00,
2013-08-20 18:04:00,82.7,69.8,30.00,South,178,0.0,2.0,65,0.00,,---,0.00,VWS V14.01,2013-08-20 23:04:00,
2013-08-20 18:09:00,82.3,70.3,30.00,South,178,0.0,2.0,67,0.00,,---,0.00,VWS V14.01,2013-08-20 23:09:00,
2013-08-20 18:14:00,81.9,70.3,30.00,South,178,0.0,2.0,68,0.00,,---,0.00,VWS V14.01,2013-08-20 23:14:00,
2013-08-20 18:19:00,81.3,70.6,30.00,South,177,0.0,4.0,70,0.00,,---,0.00,VWS V14.01,2013-08-20 23:19:00,
2013-08-20 18:24:00,80.8,70.1,30.00,South,176,0.0,4.0,70,0.00,,---,0.00,VWS V14.01,2013-08-20 23:24:00,
2013-08-20 18:29:00,80.5,70.7,30.00,SE,138,0.0,4.0,72,0.00,,---,0.00,VWS V14.01,2013-08-20 23:29:00,
2013-08-20 18:30:00,80.4,70.6,30.00,SE,138,0.0,4.0,72,0.00,,---,0.00,VWS V14.01,2013-08-20 23:30:00,
2013-08-20 18:34:00,80.0,70.6,30.00,SE,138,0.0,0.0,73,0.00,,---,0.00,VWS V14.01,2013-08-20 23:34:00,
2013-08-20 18:39:00,79.6,70.6,30.00,SE,138,0.0,1.0,74,0.00,,---,0.00,VWS V14.01,2013-08-20 23:39:00,
2013-08-20 18:44:00,79.3,70.7,30.00,SE,138,0.0,1.0,75,0.00,,---,0.00,VWS V14.01,2013-08-20 23:44:00,
2013-08-20 18:49:00,78.9,69.9,30.01,SE,138,0.0,1.0,74,0.00,,---,0.00,VWS V14.01,2013-08-20 23:49:00,
2013-08-20 18:54:00,78.7,70.1,30.01,SE,138,0.0,1.0,75,0.00,,---,0.00,VWS V14.01,2013-08-20 23:54:00,
2013-08-20 18:59:00,78.3,69.7,30.00,SE,138,0.0,1.0,75,0.00,,---,0.00,VWS V14.01,2013-08-20 23:59:00,
2013-08-20 19:00:00,78.3,69.7,30.00,SE,138,0.0,1.0,75,0.00,,---,0.00,VWS V14.01,2013-08-21 00:00:00,
2013-08-20 19:04:00,78.0,69.8,30.00,SE,138,0.0,0.0,76,0.00,,---,0.00,VWS V14.01,2013-08-21 00:04:00,
2013-08-20 19:09:00,77.6,70.2,30.01,SE,138,0.0,0.0,78,0.00,,---,0.00,VWS V14.01,2013-08-21 00:09:00,
2013-08-20 19:14:00,77.2,69.8,30.01,SE,138,0.0,0.0,78,0.00,,---,0.00,VWS V14.01,2013-08-21 00:14:00,
2013-08-20 19:19:00,76.9,69.9,30.01,SE,138,0.0,0.0,79,0.00,,---,0.00,VWS V14.01,2013-08-21 00:19:00,
2013-08-20 19:24:00,76.6,70.0,30.01,SE,138,0.0,0.0,80,0.00,,---,0.00,VWS V14.01,2013-08-21 00:24:00,
2013-08-20 19:29:00,76.4,70.1,30.01,SE,138,0.0,0.0,81,0.00,,---,0.00,VWS V14.01,2013-08-21 00:29:00,
2013-08-20 19:30:00,76.4,70.1,30.01,SE,138,0.0,0.0,81,0.00,,---,0.00,VWS V14.01,2013-08-21 00:30:00,
2013-08-20 19:34:00,76.1,69.8,30.01,SE,138,0.0,0.0,81,0.00,,---,0.00,VWS V14.01,2013-08-21 00:34:00,
2013-08-20 19:39:00,75.7,69.8,30.01,SE,138,0.0,0.0,82,0.00,,---,0.00,VWS V14.01,2013-08-21 00:39:00,
2013-08-20 19:44:00,75.3,69.4,30.01,SE,138,0.0,0.0,82,0.00,,---,0.00,VWS V14.01,2013-08-21 00:44:00,
2013-08-20 19:49:00,74.9,69.4,30.01,SE,138,0.0,0.0,83,0.00,,---,0.00,VWS V14.01,2013-08-21 00:49:00,
2013-08-20 19:54:00,74.6,69.4,30.01,SE,138,0.0,0.0,84,0.00,,---,0.00,VWS V14.01,2013-08-21 00:54:00,
2013-08-20 19:59:00,74.2,69.1,30.01,SE,138,0.0,0.0,84,0.00,,---,0.00,VWS V14.01,2013-08-21 00:59:00,
2013-08-20 20:00:00,74.2,69.1,30.01,SE,138,0.0,0.0,84,0.00,,---,0.00,VWS V14.01,2013-08-21 01:00:00,
2013-08-20 20:04:00,73.8,68.7,30.01,SE,138,0.0,0.0,84,0.00,,---,0.00,VWS V14.01,2013-08-21 01:04:00,
2013-08-20 20:09:00,73.3,68.5,30.01,SE,138,0.0,0.0,85,0.00,,---,0.00,VWS V14.01,2013-08-21 01:09:00,
2013-08-20 20:14:00,73.0,68.2,30.01,SE,138,0.0,0.0,85,0.00,,---,0.00,VWS V14.01,2013-08-21 01:14:00,
2013-08-20 20:19:00,72.7,68.3,30.01,SE,138,0.0,0.0,86,0.00,,---,0.00,VWS V14.01,2013-08-21 01:19:00,
2013-08-20 20:24:00,72.2,67.8,30.01,SE,138,0.0,0.0,86,0.00,,---,0.00,VWS V14.01,2013-08-21 01:24:00,
2013-08-20 20:29:00,71.9,67.5,30.01,SE,138,0.0,0.0,86,0.00,,---,0.00,VWS V14.01,2013-08-21 01:29:00,
2013-08-20 20:30:00,71.9,67.5,30.01,SE,138,0.0,0.0,86,0.00,,---,0.00,VWS V14.01,2013-08-21 01:30:00,
2013-08-20 20:34:00,71.6,67.5,30.01,SE,138,0.0,0.0,87,0.00,,---,0.00,VWS V14.01,2013-08-21 01:34:00,
2013-08-20 20:39:00,71.3,67.2,30.02,SE,138,0.0,1.0,87,0.00,,---,0.00,VWS V14.01,2013-08-21 01:39:00,
2013-08-20 20:44:00,71.0,67.3,30.02,SE,138,0.0,1.0,88,0.00,,---,0.00,VWS V14.01,2013-08-21 01:44:00,
2013-08-20 20:49:00,70.7,67.0,30.02,SE,138,0.0,1.0,88,0.00,,---,0.00,VWS V14.01,2013-08-21 01:49:00,
2013-08-20 20:54:00,70.4,66.7,30.02,SE,138,0.0,1.0,88,0.00,,---,0.00,VWS V14.01,2013-08-21 01:54:00,
2013-08-20 20:59:00,70.2,66.8,30.02,SE,138,0.0,1.0,89,0.00,,---,0.00,VWS V14.01,2013-08-21 01:59:00,
2013-08-20 21:00:00,70.2,66.8,30.02,SE,138,0.0,1.0,89,0.00,,---,0.00,VWS V14.01,2013-08-21 02:00:00,
2013-08-20 21:04:00,70.0,66.6,30.02,SE,138,0.0,0.0,89,0.00,,---,0.00,VWS V14.01,2013-08-21 02:04:00,
2013-08-20 21:09:00,69.7,66.3,30.03,SE,138,0.0,0.0,89,0.00,,---,0.00,VWS V14.01,2013-08-21 02:09:00,
2013-08-20 21:14:00,69.5,66.1,30.02,SE,138,0.0,0.0,89,0.00,,---,0.00,VWS V14.01,2013-08-21 02:14:00,
2013-08-20 21:19:00,69.3,66.2,30.02,SE,138,0.0,0.0,90,0.00,,---,0.00,VWS V14.01,2013-08-21 02:19:00,
2013-08-20 21:24:00,69.2,66.2,30.02,SE,138,0.0,0.0,90,0.00,,---,0.00,VWS V14.01,2013-08-21 02:24:00,
2013-08-20 21:29:00,69.0,65.9,30.03,SE,138,0.0,0.0,90,0.00,,---,0.00,VWS V14.01,2013-08-21 02:29:00,
2013-08-20 21:30:00,69.0,65.9,30.03,SE,138,0.0,0.0,90,0.00,,---,0.00,VWS V14.01,2013-08-21 02:30:00,
2013-08-20 21:34:00,68.8,66.1,30.03,SE,138,0.0,0.0,91,0.00,,---,0.00,VWS V14.01,2013-08-21 02:34:00,
2013-08-20 21:39:00,68.7,66.0,30.03,SE,138,0.0,0.0,91,0.00,,---,0.00,VWS V14.01,2013-08-21 02:39:00,
2013-08-20 21:44:00,68.5,65.8,30.03,SE,138,0.0,0.0,91,0.00,,---,0.00,VWS V14.01,2013-08-21 02:44:00,
2013-08-20 21:49:00,68.4,65.7,30.03,SE,138,0.0,0.0,91,0.00,,---,0.00,VWS V14.01,2013-08-21 02:49:00,
2013-08-20 21:54:00,68.3,65.6,30.03,SE,138,0.0,0.0,91,0.00,,---,0.00,VWS V14.01,2013-08-21 02:54:00,
2013-08-20 21:59:00,68.1,65.4,30.03,SE,138,0.0,0.0,91,0.00,,---,0.00,VWS V14.01,2013-08-21 02:59:00,
2013-08-20 22:00:00,68.1,65.4,30.03,SE,138,0.0,0.0,91,0.00,,---,0.00,VWS V14.01,2013-08-21 03:00:00,
2013-08-20 22:04:00,68.0,65.6,30.03,SE,138,0.0,0.0,92,0.00,,---,0.00,VWS V14.01,2013-08-21 03:04:00,
2013-08-20 22:09:00,67.9,65.5,30.03,SE,138,0.0,0.0,92,0.00,,---,0.00,VWS V14.01,2013-08-21 03:09:00,
2013-08-20 22:14:00,67.7,65.3,30.03,SE,138,0.0,0.0,92,0.00,,---,0.00,VWS V14.01,2013-08-21 03:14:00,
2013-08-20 22:19:00,67.6,65.2,30.03,SE,138,0.0,1.0,92,0.00,,---,0.00,VWS V14.01,2013-08-21 03:19:00,
2013-08-20 22:24:00,67.5,65.1,30.03,SE,138,0.0,1.0,92,0.00,,---,0.00,VWS V14.01,2013-08-21 03:24:00,
2013-08-20 22:29:00,67.4,65.3,30.03,SE,138,0.0,1.0,93,0.00,,---,0.00,VWS V14.01,2013-08-21 03:29:00,
2013-08-20 22:30:00,67.4,65.3,30.03,SE,138,0.0,1.0,93,0.00,,---,0.00,VWS V14.01,2013-08-21 03:30:00,
2013-08-20 22:34:00,67.4,65.3,30.03,SE,138,0.0,0.0,93,0.00,,---,0.00,VWS V14.01,2013-08-21 03:34:00,
2013-08-20 22:39:00,67.3,65.2,30.03,SE,138,0.0,0.0,93,0.00,,---,0.00,VWS V14.01,2013-08-21 03:39:00,
2013-08-20 22:44:00,67.2,65.1,30.03,SE,138,0.0,0.0,93,0.00,,---,0.00,VWS V14.01,2013-08-21 03:44:00,
2013-08-20 22:49:00,67.2,65.1,30.03,SE,138,0.0,0.0,93,0.00,,---,0.00,VWS V14.01,2013-08-21 03:49:00,
2013-08-20 22:54:00,67.1,65.0,30.03,SE,138,0.0,0.0,93,0.00,,---,0.00,VWS V14.01,2013-08-21 03:54:00,
2013-08-20 22:59:00,67.0,64.9,30.03,SE,138,0.0,0.0,93,0.00,,---,0.00,VWS V14.01,2013-08-21 03:59:00,
2013-08-20 23:00:00,67.0,64.9,30.03,SE,138,0.0,0.0,93,0.00,,---,0.00,VWS V14.01,2013-08-21 04:00:00,
2013-08-20 23:01:00,67.0,64.9,30.03,SE,138,0.0,0.0,93,0.00,,---,0.00,VWS V14.01,2013-08-21 04:01:00,
2013-08-20 23:06:00,67.0,64.9,30.03,SE,138,0.0,0.0,93,0.00,,---,0.00,VWS V14.01,2013-08-21 04:06:00,
2013-08-20 23:11:00,66.8,64.7,30.03,SE,138,0.0,0.0,93,0.00,,---,0.00,VWS V14.01,2013-08-21 04:11:00,
2013-08-20 23:16:00,66.7,64.6,30.04,SE,138,0.0,0.0,93,0.00,,---,0.00,VWS V14.01,2013-08-21 04:16:00,
2013-08-20 23:21:00,66.7,64.9,30.03,SE,138,0.0,1.0,94,0.00,,---,0.00,VWS V14.01,2013-08-21 04:21:00,
2013-08-20 23:26:00,66.5,64.4,30.03,SE,138,0.0,1.0,93,0.00,,---,0.00,VWS V14.01,2013-08-21 04:26:00,
2013-08-20 23:30:00,66.5,64.4,30.03,SE,138,0.0,1.0,93,0.00,,---,0.00,VWS V14.01,2013-08-21 04:30:00,
2013-08-20 23:31:00,66.4,64.3,30.03,SE,138,0.0,0.0,93,0.00,,---,0.00,VWS V14.01,2013-08-21 04:31:00,
2013-08-20 23:36:00,66.3,64.5,30.03,SE,138,0.0,0.0,94,0.00,,---,0.00,VWS V14.01,2013-08-21 04:36:00,
2013-08-20 23:41:00,66.2,64.4,30.03,SE,138,0.0,2.0,94,0.00,,---,0.00,VWS V14.01,2013-08-21 04:41:00,
2013-08-20 23:46:00,66.2,64.4,30.03,SE,138,0.0,2.0,94,0.00,,---,0.00,VWS V14.01,2013-08-21 04:46:00,
2013-08-20 23:51:00,66.1,64.3,30.03,SE,138,0.0,2.0,94,0.00,,---,0.00,VWS V14.01,2013-08-21 04:51:00,
2013-08-20 23:56:00,66.1,64.3,30.03,SE,138,0.0,2.0,94,0.00,,---,0.00,VWS V14.01,2013-08-21 04:56:00,